»·PEaware :: COA103 KPHX-KLAS

COA103 :: KPHX-KLAS

FLIGHT INFORMATION

Flight Status: Arrived
Operator:
Continental Air Lines
More flights by this operator :: More flights under this callsign
Pilot: Andrew C. (28419)
Aircraft: BOEING 737-800
(B738)
More flights by this aircraft type
Origin: KPHX Phoenix Sky Harbor Intl
United States
Destination: KLAS McCarran Intl
United States
More flights between these airports :: More routes between these airports
Route: +ZEPER2 RRSTA IGM TYSSN5
File this flight plan on PilotEdge
Remarks: RMK / SIMBRIEF
Altitude:
(Current/Filed)
30,000ft
Speed:
(Current/Filed)
445kts
Departed: 14-Sep-20 04:04 PM
Arrived: 14-Sep-20 04:49 PM
Distance/Time
Traveled:
221nm/0:45
Distance/Time
To Go:
Arrived

Flight Plot

Page will automatically refresh every two minutes.

Flight plan parsing failed; only flown route is shown


Map Options




Map Legend


Flown Route
Filed Route
Departure Airport
Arrival Airport
Navaid (VOR, NDB)
Fix

Horizontal Profiles

Position Reports

Time Latitude Longitude Heading Altitude Ground
Speed
14-Sep-20 15:47 33.437991 -112.008242 270 1145ft 0kts
14-Sep-20 15:48 33.437991 -112.008242 270 1145ft 0kts
14-Sep-20 15:49 33.437991 -112.008242 270 1145ft 0kts
14-Sep-20 15:50 33.437991 -112.008242 270 1145ft 0kts
14-Sep-20 15:50 33.437991 -112.008242 270 1145ft 0kts
14-Sep-20 15:51 33.437991 -112.008242 270 1145ft 0kts
14-Sep-20 15:53 33.437991 -112.008242 270 1145ft 0kts
14-Sep-20 15:54 33.437991 -112.008242 270 1145ft 0kts
14-Sep-20 15:54 33.437991 -112.008238 270 1145ft 0kts
14-Sep-20 15:55 33.437985 -112.007527 277 1145ft 2kts
14-Sep-20 15:56 33.437728 -112.007333 0 1145ft 0kts
14-Sep-20 15:57 33.437729 -112.007333 0 1145ft 0kts
14-Sep-20 15:58 33.439025 -112.008024 275 1145ft 10kts
14-Sep-20 15:59 33.439041 -112.008947 268 1145ft 15kts
14-Sep-20 16:00 33.439035 -112.017776 269 1145ft 34kts
14-Sep-20 16:01 33.439040 -112.028891 271 1145ft 22kts
14-Sep-20 16:02 33.440476 -112.029699 3 1145ft 14kts
14-Sep-20 16:03 33.441029 -111.995600 84 1753ft 179kts
14-Sep-20 16:04 33.438870 -111.921486 95 3756ft 255kts
14-Sep-20 16:05 33.455990 -111.840875 26 6400ft 298kts
14-Sep-20 16:06 33.540870 -111.838170 0 9376ft 320kts
14-Sep-20 16:07 33.633524 -111.837078 2 11628ft 352kts
14-Sep-20 16:08 33.729873 -111.859151 327 14208ft 363kts
14-Sep-20 16:09 33.796075 -111.953165 307 16362ft 379kts
14-Sep-20 16:10 33.858702 -112.055553 307 18545ft 387kts
14-Sep-20 16:11 33.923556 -112.162137 307 18991ft 393kts
14-Sep-20 16:12 33.988023 -112.268408 307 18995ft 394kts
14-Sep-20 16:13 34.062213 -112.364844 319 19000ft 393kts
14-Sep-20 16:14 34.144479 -112.450912 320 19872ft 393kts
14-Sep-20 16:15 34.227309 -112.534990 320 22212ft 390kts
14-Sep-20 16:16 34.313114 -112.621681 320 23499ft 409kts
14-Sep-20 16:17 34.400284 -112.709910 319 24970ft 416kts
14-Sep-20 16:18 34.489920 -112.800860 319 26375ft 423kts
14-Sep-20 16:19 34.580470 -112.893027 318 27596ft 430kts
14-Sep-20 16:20 34.670630 -112.985644 318 29486ft 419kts
14-Sep-20 16:21 34.755765 -113.082198 309 30182ft 426kts
14-Sep-20 16:22 34.828820 -113.198823 305 30185ft 442kts
14-Sep-20 16:23 34.901693 -113.321356 305 30183ft 451kts
14-Sep-20 16:24 34.972106 -113.440314 304 30191ft 422kts
14-Sep-20 16:25 35.041731 -113.558469 304 30197ft 430kts
14-Sep-20 16:26 35.107962 -113.671268 304 29283ft 424kts
14-Sep-20 16:27 35.177239 -113.789701 304 25944ft 432kts
14-Sep-20 16:28 35.244267 -113.901149 311 23413ft 393kts
14-Sep-20 16:29 35.323899 -113.989870 320 21188ft 383kts
14-Sep-20 16:30 35.406775 -114.069441 322 19013ft 375kts
14-Sep-20 16:31 35.486572 -114.144441 323 17844ft 365kts
14-Sep-20 16:32 35.568941 -114.220931 323 15624ft 367kts
14-Sep-20 16:33 35.649041 -114.295399 322 13618ft 357kts
14-Sep-20 16:34 35.725921 -114.367886 323 12217ft 331kts
14-Sep-20 16:35 35.805865 -114.413286 339 12001ft 318kts
14-Sep-20 16:36 35.887789 -114.451493 339 11848ft 305kts
14-Sep-20 16:37 35.966433 -114.488321 339 10652ft 291kts
14-Sep-20 16:38 36.032119 -114.530900 307 10357ft 242kts
14-Sep-20 16:39 36.051116 -114.603057 277 9495ft 212kts
14-Sep-20 16:40 36.063757 -114.672367 284 8682ft 208kts
14-Sep-20 16:41 36.074219 -114.741650 269 7994ft 204kts
14-Sep-20 16:42 36.073564 -114.813327 266 7394ft 212kts
14-Sep-20 16:43 36.072514 -114.884116 269 6199ft 206kts
14-Sep-20 16:44 36.073754 -114.954259 268 4731ft 196kts
14-Sep-20 16:45 36.072836 -115.022930 270 3671ft 201kts
14-Sep-20 16:46 36.073624 -115.083674 268 2665ft 159kts
14-Sep-20 16:47 36.073639 -115.138133 269 2084ft 118kts
14-Sep-20 16:48 36.075474 -115.151435 326 2127ft 15kts
14-Sep-20 16:49 36.077620 -115.152644 335 2126ft 7kts
14-Sep-20 16:50 36.078589 -115.148114 94 2109ft 25kts
14-Sep-20 16:51 36.080376 -115.142237 28 2081ft 9kts
14-Sep-20 16:52 36.080745 -115.140529 133 2078ft 0kts
14-Sep-20 16:53 36.080745 -115.140529 133 2078ft 0kts
14-Sep-20 16:54 36.080745 -115.140529 133 2079ft 0kts
14-Sep-20 16:55 36.080745 -115.140529 133 2079ft 0kts
14-Sep-20 16:56 36.080745 -115.140529 133 2079ft 0kts
14-Sep-20 16:57 36.080745 -115.140529 133 2079ft 0kts
14-Sep-20 16:58 36.080745 -115.140529 133 2079ft 0kts
14-Sep-20 16:59 36.080745 -115.140529 133 2079ft 0kts
14-Sep-20 17:00 36.080745 -115.140529 133 2079ft 0kts
14-Sep-20 17:01 36.080745 -115.140529 133 2079ft 0kts
14-Sep-20 17:02 36.080745 -115.140529 133 2079ft 0kts

Navigation Log

Ident Type
Flight plan parsing failed, navigation log unavailable